Argonia, Kansas
Current Conditions -  °F | °C
As of 10:53 PM on Thursday 27 Nov 2014 (Local Time) from KICT Reporting Station
Clear Clear  
Wind Chill: 30°   Ceiling: Unl
Heat Index: 38°   Visibility: 10mi
Dew Point: 22°   Wind: 14mph
Humidity: 53%   Direction: 190°S
Pressure: 30.17"   Gusts: NA
Location:  37.27°N, 97.77°W
Report Text: KICT 280453Z 19012KT 10SM CLR 03/M06 A3017 RMK AO2 SLP225 T00331056
Loading
Personal Weather Stations






























Interactive Weather Map New forecast layout! Learn more

10-Day Weather Forecast

Advertisements
Track Severe Weather on mobile